sensor_id;sensor_type;location;lat;lon;timestamp;temperature;humidity
65369;HTU21D;51970;53.484;49.488;2022-07-23T00:00:00;19.08;81.11
65369;HTU21D;51970;53.484;49.488;2022-07-23T00:02:26;19.02;82.07
65369;HTU21D;51970;53.484;49.488;2022-07-23T00:04:52;18.96;81.27
65369;HTU21D;51970;53.484;49.488;2022-07-23T00:07:18;18.98;80.00
65369;HTU21D;51970;53.484;49.488;2022-07-23T00:09:44;18.96;80.10
65369;HTU21D;51970;53.484;49.488;2022-07-23T00:12:10;18.96;78.99
65369;HTU21D;51970;53.484;49.488;2022-07-23T00:14:36;18.94;79.08
65369;HTU21D;51970;53.484;49.488;2022-07-23T00:17:02;18.88;78.85
65369;HTU21D;51970;53.484;49.488;2022-07-23T00:19:28;18.91;78.78
65369;HTU21D;51970;53.484;49.488;2022-07-23T00:21:55;18.93;77.85
65369;HTU21D;51970;53.484;49.488;2022-07-23T00:24:21;18.93;78.19
65369;HTU21D;51970;53.484;49.488;2022-07-23T00:26:46;19.00;78.53
65369;HTU21D;51970;53.484;49.488;2022-07-23T00:29:12;19.02;78.29
65369;HTU21D;51970;53.484;49.488;2022-07-23T00:31:38;18.98;78.63
65369;HTU21D;51970;53.484;49.488;2022-07-23T00:34:05;18.99;78.49
65369;HTU21D;51970;53.484;49.488;2022-07-23T00:36:31;18.96;78.68
65369;HTU21D;51970;53.484;49.488;2022-07-23T00:38:57;18.94;79.14
65369;HTU21D;51970;53.484;49.488;2022-07-23T00:41:23;18.88;79.68
65369;HTU21D;51970;53.484;49.488;2022-07-23T00:43:49;18.91;79.30
65369;HTU21D;51970;53.484;49.488;2022-07-23T00:46:22;19.02;79.12
65369;HTU21D;51970;53.484;49.488;2022-07-23T00:48:48;19.06;79.09
65369;HTU21D;51970;53.484;49.488;2022-07-23T00:51:15;19.02;78.72
65369;HTU21D;51970;53.484;49.488;2022-07-23T00:53:42;18.99;78.21
65369;HTU21D;51970;53.484;49.488;2022-07-23T00:56:08;19.06;78.16
65369;HTU21D;51970;53.484;49.488;2022-07-23T00:58:36;19.07;77.37
65369;HTU21D;51970;53.484;49.488;2022-07-23T01:01:04;19.13;77.35
65369;HTU21D;51970;53.484;49.488;2022-07-23T01:03:30;19.14;77.31
65369;HTU21D;51970;53.484;49.488;2022-07-23T01:05:57;19.13;77.27
65369;HTU21D;51970;53.484;49.488;2022-07-23T01:08:23;19.23;77.06
65369;HTU21D;51970;53.484;49.488;2022-07-23T01:10:50;19.38;76.40
65369;HTU21D;51970;53.484;49.488;2022-07-23T01:13:17;19.53;75.33
65369;HTU21D;51970;53.484;49.488;2022-07-23T01:15:43;19.87;74.06
65369;HTU21D;51970;53.484;49.488;2022-07-23T01:18:09;20.06;72.97
65369;HTU21D;51970;53.484;49.488;2022-07-23T01:20:35;19.97;73.73
65369;HTU21D;51970;53.484;49.488;2022-07-23T01:23:01;19.91;74.21
65369;HTU21D;51970;53.484;49.488;2022-07-23T01:25:27;19.88;74.50
65369;HTU21D;51970;53.484;49.488;2022-07-23T01:27:54;19.83;74.34
65369;HTU21D;51970;53.484;49.488;2022-07-23T01:30:20;19.71;74.90
65369;HTU21D;51970;53.484;49.488;2022-07-23T01:32:46;19.68;74.53
65369;HTU21D;51970;53.484;49.488;2022-07-23T01:35:12;19.74;74.12
65369;HTU21D;51970;53.484;49.488;2022-07-23T01:37:38;19.81;73.59
65369;HTU21D;51970;53.484;49.488;2022-07-23T01:40:05;20.09;72.82
65369;HTU21D;51970;53.484;49.488;2022-07-23T01:42:31;20.73;70.37
65369;HTU21D;51970;53.484;49.488;2022-07-23T01:44:57;21.59;67.97
65369;HTU21D;51970;53.484;49.488;2022-07-23T01:47:23;22.55;63.48
65369;HTU21D;51970;53.484;49.488;2022-07-23T01:49:49;23.64;59.51
65369;HTU21D;51970;53.484;49.488;2022-07-23T01:52:15;24.62;56.80
65369;HTU21D;51970;53.484;49.488;2022-07-23T01:54:42;25.21;53.92
65369;HTU21D;51970;53.484;49.488;2022-07-23T01:57:08;25.60;53.75
65369;HTU21D;51970;53.484;49.488;2022-07-23T01:59:35;25.82;53.10
65369;HTU21D;51970;53.484;49.488;2022-07-23T02:02:01;25.64;54.14
65369;HTU21D;51970;53.484;49.488;2022-07-23T02:04:29;24.98;55.68
65369;HTU21D;51970;53.484;49.488;2022-07-23T02:06:55;24.03;58.23
65369;HTU21D;51970;53.484;49.488;2022-07-23T02:09:21;23.37;59.93
65369;HTU21D;51970;53.484;49.488;2022-07-23T02:11:48;23.58;59.63
65369;HTU21D;51970;53.484;49.488;2022-07-23T02:14:14;23.74;58.66
65369;HTU21D;51970;53.484;49.488;2022-07-23T02:16:40;24.01;58.39
65369;HTU21D;51970;53.484;49.488;2022-07-23T02:19:06;24.40;56.62
65369;HTU21D;51970;53.484;49.488;2022-07-23T02:21:32;24.20;57.41
65369;HTU21D;51970;53.484;49.488;2022-07-23T02:23:58;23.81;59.05
65369;HTU21D;51970;53.484;49.488;2022-07-23T02:26:24;23.36;60.02
65369;HTU21D;51970;53.484;49.488;2022-07-23T02:28:50;22.91;61.48
65369;HTU21D;51970;53.484;49.488;2022-07-23T02:31:16;22.67;63.75
65369;HTU21D;51970;53.484;49.488;2022-07-23T02:33:42;22.50;64.68
65369;HTU21D;51970;53.484;49.488;2022-07-23T02:36:08;22.27;63.83
65369;HTU21D;51970;53.484;49.488;2022-07-23T02:38:34;21.92;65.43
65369;HTU21D;51970;53.484;49.488;2022-07-23T02:41:00;21.66;66.92
65369;HTU21D;51970;53.484;49.488;2022-07-23T02:43:26;21.42;68.03
65369;HTU21D;51970;53.484;49.488;2022-07-23T02:45:52;21.34;68.28
65369;HTU21D;51970;53.484;49.488;2022-07-23T02:48:18;21.20;68.17
65369;HTU21D;51970;53.484;49.488;2022-07-23T02:50:44;21.17;68.10
65369;HTU21D;51970;53.484;49.488;2022-07-23T02:53:10;21.20;68.39
65369;HTU21D;51970;53.484;49.488;2022-07-23T02:55:36;21.27;68.35
65369;HTU21D;51970;53.484;49.488;2022-07-23T02:58:02;21.36;69.29
65369;HTU21D;51970;53.484;49.488;2022-07-23T03:00:28;21.47;69.42
65369;HTU21D;51970;53.484;49.488;2022-07-23T03:02:54;21.57;68.06
65369;HTU21D;51970;53.484;49.488;2022-07-23T03:05:20;21.59;68.03
65369;HTU21D;51970;53.484;49.488;2022-07-23T03:07:46;21.57;66.96
65369;HTU21D;51970;53.484;49.488;2022-07-23T03:10:12;21.58;68.36
65369;HTU21D;51970;53.484;49.488;2022-07-23T03:12:38;21.53;68.18
65369;HTU21D;51970;53.484;49.488;2022-07-23T03:15:04;21.55;67.63
65369;HTU21D;51970;53.484;49.488;2022-07-23T03:17:31;21.58;67.46
65369;HTU21D;51970;53.484;49.488;2022-07-23T03:19:57;21.55;67.04
65369;HTU21D;51970;53.484;49.488;2022-07-23T03:22:22;21.55;67.14
65369;HTU21D;51970;53.484;49.488;2022-07-23T03:24:48;21.57;67.46
65369;HTU21D;51970;53.484;49.488;2022-07-23T03:27:25;21.59;67.46
65369;HTU21D;51970;53.484;49.488;2022-07-23T03:29:56;21.51;66.36
65369;HTU21D;51970;53.484;49.488;2022-07-23T03:32:24;21.48;67.65
65369;HTU21D;51970;53.484;49.488;2022-07-23T03:34:50;21.38;67.96
65369;HTU21D;51970;53.484;49.488;2022-07-23T03:37:17;21.27;67.04
65369;HTU21D;51970;53.484;49.488;2022-07-23T03:39:44;21.19;68.55
65369;HTU21D;51970;53.484;49.488;2022-07-23T03:42:10;21.24;69.54
65369;HTU21D;51970;53.484;49.488;2022-07-23T03:44:36;21.31;68.61
65369;HTU21D;51970;53.484;49.488;2022-07-23T03:47:04;21.28;67.63
65369;HTU21D;51970;53.484;49.488;2022-07-23T03:49:30;21.25;67.13
65369;HTU21D;51970;53.484;49.488;2022-07-23T03:51:56;21.15;67.55
65369;HTU21D;51970;53.484;49.488;2022-07-23T03:54:22;21.06;68.01
65369;HTU21D;51970;53.484;49.488;2022-07-23T03:56:48;21.03;67.97
65369;HTU21D;51970;53.484;49.488;2022-07-23T03:59:14;20.98;68.55
65369;HTU21D;51970;53.484;49.488;2022-07-23T04:01:40;20.98;68.78
65369;HTU21D;51970;53.484;49.488;2022-07-23T04:04:06;21.01;68.66
65369;HTU21D;51970;53.484;49.488;2022-07-23T04:06:34;20.99;68.55
65369;HTU21D;51970;53.484;49.488;2022-07-23T04:09:01;20.99;69.31
65369;HTU21D;51970;53.484;49.488;2022-07-23T04:11:27;21.03;69.15
65369;HTU21D;51970;53.484;49.488;2022-07-23T04:13:53;20.96;68.91
65369;HTU21D;51970;53.484;49.488;2022-07-23T04:16:19;20.90;69.23
65369;HTU21D;51970;53.484;49.488;2022-07-23T04:18:45;20.91;69.15
65369;HTU21D;51970;53.484;49.488;2022-07-23T04:21:11;20.94;69.13
65369;HTU21D;51970;53.484;49.488;2022-07-23T04:23:37;20.98;69.29
65369;HTU21D;51970;53.484;49.488;2022-07-23T04:26:03;21.10;69.03
65369;HTU21D;51970;53.484;49.488;2022-07-23T04:28:29;21.20;68.81
65369;HTU21D;51970;53.484;49.488;2022-07-23T04:30:58;21.35;68.75
65369;HTU21D;51970;53.484;49.488;2022-07-23T04:33:24;21.51;67.17
65369;HTU21D;51970;53.484;49.488;2022-07-23T04:35:50;21.60;66.95
65369;HTU21D;51970;53.484;49.488;2022-07-23T04:38:17;21.75;66.43
65369;HTU21D;51970;53.484;49.488;2022-07-23T04:40:43;22.09;65.57
65369;HTU21D;51970;53.484;49.488;2022-07-23T04:43:08;22.36;64.52
65369;HTU21D;51970;53.484;49.488;2022-07-23T04:45:34;22.67;63.38
65369;HTU21D;51970;53.484;49.488;2022-07-23T04:48:00;23.22;62.44
65369;HTU21D;51970;53.484;49.488;2022-07-23T04:50:26;23.44;60.91
65369;HTU21D;51970;53.484;49.488;2022-07-23T04:52:52;23.73;60.09
65369;HTU21D;51970;53.484;49.488;2022-07-23T04:55:18;24.30;59.11
65369;HTU21D;51970;53.484;49.488;2022-07-23T04:57:44;24.76;57.97
65369;HTU21D;51970;53.484;49.488;2022-07-23T05:00:11;25.07;56.90
65369;HTU21D;51970;53.484;49.488;2022-07-23T05:02:37;25.27;55.99
65369;HTU21D;51970;53.484;49.488;2022-07-23T05:05:03;25.37;55.03
65369;HTU21D;51970;53.484;49.488;2022-07-23T05:07:29;25.76;52.40
65369;HTU21D;51970;53.484;49.488;2022-07-23T05:09:55;25.69;51.96
65369;HTU21D;51970;53.484;49.488;2022-07-23T05:12:21;25.27;53.06
65369;HTU21D;51970;53.484;49.488;2022-07-23T05:14:47;25.40;53.55
65369;HTU21D;51970;53.484;49.488;2022-07-23T05:17:13;25.88;52.23
65369;HTU21D;51970;53.484;49.488;2022-07-23T05:19:39;26.02;52.06
65369;HTU21D;51970;53.484;49.488;2022-07-23T05:22:05;25.94;51.59
65369;HTU21D;51970;53.484;49.488;2022-07-23T05:24:31;25.76;51.78
65369;HTU21D;51970;53.484;49.488;2022-07-23T05:26:57;25.63;51.99
65369;HTU21D;51970;53.484;49.488;2022-07-23T05:29:23;25.91;52.57
65369;HTU21D;51970;53.484;49.488;2022-07-23T05:31:49;25.96;52.00
65369;HTU21D;51970;53.484;49.488;2022-07-23T05:34:15;25.76;51.91
65369;HTU21D;51970;53.484;49.488;2022-07-23T05:36:41;25.56;54.01
65369;HTU21D;51970;53.484;49.488;2022-07-23T05:39:07;25.60;53.65
65369;HTU21D;51970;53.484;49.488;2022-07-23T05:41:33;25.71;53.03
65369;HTU21D;51970;53.484;49.488;2022-07-23T05:43:59;25.99;53.27
65369;HTU21D;51970;53.484;49.488;2022-07-23T05:46:25;26.16;52.21
65369;HTU21D;51970;53.484;49.488;2022-07-23T05:48:51;25.99;51.61
65369;HTU21D;51970;53.484;49.488;2022-07-23T05:51:24;26.07;52.19
65369;HTU21D;51970;53.484;49.488;2022-07-23T05:53:50;26.27;51.29
65369;HTU21D;51970;53.484;49.488;2022-07-23T05:56:18;26.64;49.92
65369;HTU21D;51970;53.484;49.488;2022-07-23T05:58:44;26.57;49.77
65369;HTU21D;51970;53.484;49.488;2022-07-23T06:01:10;26.84;50.04
65369;HTU21D;51970;53.484;49.488;2022-07-23T06:03:38;26.69;50.11
65369;HTU21D;51970;53.484;49.488;2022-07-23T06:06:04;26.83;50.14
65369;HTU21D;51970;53.484;49.488;2022-07-23T06:08:30;26.95;49.85
65369;HTU21D;51970;53.484;49.488;2022-07-23T06:10:56;26.87;49.66
65369;HTU21D;51970;53.484;49.488;2022-07-23T06:13:23;26.75;49.60
65369;HTU21D;51970;53.484;49.488;2022-07-23T06:15:49;26.68;48.94
65369;HTU21D;51970;53.484;49.488;2022-07-23T06:18:15;26.40;50.40
65369;HTU21D;51970;53.484;49.488;2022-07-23T06:20:41;26.34;51.28
65369;HTU21D;51970;53.484;49.488;2022-07-23T06:23:07;26.46;51.59
65369;HTU21D;51970;53.484;49.488;2022-07-23T06:25:33;26.49;51.83
65369;HTU21D;51970;53.484;49.488;2022-07-23T06:27:59;26.40;53.56
65369;HTU21D;51970;53.484;49.488;2022-07-23T06:30:25;26.65;53.15
65369;HTU21D;51970;53.484;49.488;2022-07-23T06:32:51;27.06;52.86
65369;HTU21D;51970;53.484;49.488;2022-07-23T06:35:17;27.10;51.10
65369;HTU21D;51970;53.484;49.488;2022-07-23T06:37:43;27.32;49.69
65369;HTU21D;51970;53.484;49.488;2022-07-23T06:40:10;27.53;48.94
65369;HTU21D;51970;53.484;49.488;2022-07-23T06:42:36;27.46;47.59
65369;HTU21D;51970;53.484;49.488;2022-07-23T06:45:05;27.38;49.34
65369;HTU21D;51970;53.484;49.488;2022-07-23T06:47:31;27.61;48.59
65369;HTU21D;51970;53.484;49.488;2022-07-23T06:49:58;27.54;47.76
65369;HTU21D;51970;53.484;49.488;2022-07-23T06:52:24;27.45;48.86
65369;HTU21D;51970;53.484;49.488;2022-07-23T06:54:52;27.63;48.66
65369;HTU21D;51970;53.484;49.488;2022-07-23T06:57:18;27.85;47.78
65369;HTU21D;51970;53.484;49.488;2022-07-23T06:59:44;28.04;48.70
65369;HTU21D;51970;53.484;49.488;2022-07-23T07:02:10;28.33;47.79
65369;HTU21D;51970;53.484;49.488;2022-07-23T07:04:36;28.53;46.35
65369;HTU21D;51970;53.484;49.488;2022-07-23T07:07:03;28.57;46.80
65369;HTU21D;51970;53.484;49.488;2022-07-23T07:09:29;28.63;45.10
65369;HTU21D;51970;53.484;49.488;2022-07-23T07:11:55;28.59;44.88
65369;HTU21D;51970;53.484;49.488;2022-07-23T07:14:22;28.40;42.32
65369;HTU21D;51970;53.484;49.488;2022-07-23T07:16:48;28.35;42.92
65369;HTU21D;51970;53.484;49.488;2022-07-23T07:19:14;28.33;48.31
65369;HTU21D;51970;53.484;49.488;2022-07-23T07:21:40;28.23;49.74
65369;HTU21D;51970;53.484;49.488;2022-07-23T07:24:06;28.24;49.06
65369;HTU21D;51970;53.484;49.488;2022-07-23T07:26:32;28.12;48.34
65369;HTU21D;51970;53.484;49.488;2022-07-23T07:28:58;28.06;47.90
65369;HTU21D;51970;53.484;49.488;2022-07-23T07:31:25;27.90;50.56
65369;HTU21D;51970;53.484;49.488;2022-07-23T07:33:51;28.11;51.47
65369;HTU21D;51970;53.484;49.488;2022-07-23T07:36:17;28.08;52.09
65369;HTU21D;51970;53.484;49.488;2022-07-23T07:38:43;28.17;51.37
65369;HTU21D;51970;53.484;49.488;2022-07-23T07:41:09;28.30;51.08
65369;HTU21D;51970;53.484;49.488;2022-07-23T07:43:36;28.29;50.24
65369;HTU21D;51970;53.484;49.488;2022-07-23T07:46:03;28.24;50.98
65369;HTU21D;51970;53.484;49.488;2022-07-23T07:48:29;28.33;51.02
65369;HTU21D;51970;53.484;49.488;2022-07-23T07:50:55;28.41;50.56
65369;HTU21D;51970;53.484;49.488;2022-07-23T07:53:21;28.38;50.86
65369;HTU21D;51970;53.484;49.488;2022-07-23T07:55:47;28.49;49.72
65369;HTU21D;51970;53.484;49.488;2022-07-23T07:58:14;28.41;50.87
65369;HTU21D;51970;53.484;49.488;2022-07-23T08:00:40;28.18;50.69
65369;HTU21D;51970;53.484;49.488;2022-07-23T08:03:06;28.14;50.11
65369;HTU21D;51970;53.484;49.488;2022-07-23T08:05:32;28.16;50.59
65369;HTU21D;51970;53.484;49.488;2022-07-23T08:07:58;28.21;49.87
65369;HTU21D;51970;53.484;49.488;2022-07-23T08:10:26;28.39;49.47
65369;HTU21D;51970;53.484;49.488;2022-07-23T08:12:55;28.47;49.13
65369;HTU21D;51970;53.484;49.488;2022-07-23T08:15:23;28.32;48.57
65369;HTU21D;51970;53.484;49.488;2022-07-23T08:17:49;28.28;49.63
65369;HTU21D;51970;53.484;49.488;2022-07-23T08:20:18;28.27;48.21
65369;HTU21D;51970;53.484;49.488;2022-07-23T08:22:58;28.18;50.11
65369;HTU21D;51970;53.484;49.488;2022-07-23T08:25:29;27.97;50.46
65369;HTU21D;51970;53.484;49.488;2022-07-23T08:27:57;27.88;49.73
65369;HTU21D;51970;53.484;49.488;2022-07-23T08:30:23;27.82;50.19
65369;HTU21D;51970;53.484;49.488;2022-07-23T08:32:58;27.78;50.04
65369;HTU21D;51970;53.484;49.488;2022-07-23T08:35:29;27.76;50.34
65369;HTU21D;51970;53.484;49.488;2022-07-23T08:37:57;27.84;51.00
65369;HTU21D;51970;53.484;49.488;2022-07-23T08:40:25;27.87;49.63
65369;HTU21D;51970;53.484;49.488;2022-07-23T08:42:51;27.86;49.89
65369;HTU21D;51970;53.484;49.488;2022-07-23T08:45:21;27.91;48.73
65369;HTU21D;51970;53.484;49.488;2022-07-23T08:47:56;28.20;47.73
65369;HTU21D;51970;53.484;49.488;2022-07-23T08:50:24;28.49;47.56
65369;HTU21D;51970;53.484;49.488;2022-07-23T08:52:52;28.95;46.76
65369;HTU21D;51970;53.484;49.488;2022-07-23T08:55:20;29.30;46.52
65369;HTU21D;51970;53.484;49.488;2022-07-23T08:57:48;29.58;45.06
65369;HTU21D;51970;53.484;49.488;2022-07-23T09:00:15;29.75;44.40
65369;HTU21D;51970;53.484;49.488;2022-07-23T09:02:43;29.94;43.96
65369;HTU21D;51970;53.484;49.488;2022-07-23T09:05:10;30.12;42.73
65369;HTU21D;51970;53.484;49.488;2022-07-23T09:07:38;30.27;41.62
65369;HTU21D;51970;53.484;49.488;2022-07-23T09:10:23;30.35;41.17
65369;HTU21D;51970;53.484;49.488;2022-07-23T09:12:49;30.38;41.49
65369;HTU21D;51970;53.484;49.488;2022-07-23T09:15:15;30.46;40.33
65369;HTU21D;51970;53.484;49.488;2022-07-23T09:17:42;30.77;40.54
65369;HTU21D;51970;53.484;49.488;2022-07-23T09:20:14;30.91;40.12
65369;HTU21D;51970;53.484;49.488;2022-07-23T09:22:47;31.00;39.33
65369;HTU21D;51970;53.484;49.488;2022-07-23T09:25:16;30.51;36.75
65369;HTU21D;51970;53.484;49.488;2022-07-23T09:27:49;29.80;38.04
65369;HTU21D;51970;53.484;49.488;2022-07-23T09:30:16;29.23;40.40
65369;HTU21D;51970;53.484;49.488;2022-07-23T09:32:42;29.17;40.65
65369;HTU21D;51970;53.484;49.488;2022-07-23T09:35:08;29.49;37.37
65369;HTU21D;51970;53.484;49.488;2022-07-23T09:37:34;29.46;37.15
65369;HTU21D;51970;53.484;49.488;2022-07-23T09:40:19;29.41;38.64
65369;HTU21D;51970;53.484;49.488;2022-07-23T09:42:54;29.35;39.85
65369;HTU21D;51970;53.484;49.488;2022-07-23T09:45:20;28.65;46.22
65369;HTU21D;51970;53.484;49.488;2022-07-23T09:47:46;28.50;45.35
65369;HTU21D;51970;53.484;49.488;2022-07-23T09:50:12;28.21;42.08
65369;HTU21D;51970;53.484;49.488;2022-07-23T09:52:47;27.83;43.80
65369;HTU21D;51970;53.484;49.488;2022-07-23T09:55:15;27.52;47.87
65369;HTU21D;51970;53.484;49.488;2022-07-23T09:57:41;26.83;47.56
65369;HTU21D;51970;53.484;49.488;2022-07-23T10:00:10;26.86;46.12
65369;HTU21D;51970;53.484;49.488;2022-07-23T10:02:38;27.46;45.54
65369;HTU21D;51970;53.484;49.488;2022-07-23T10:05:05;27.87;45.34
65369;HTU21D;51970;53.484;49.488;2022-07-23T10:07:34;27.94;44.37
65369;HTU21D;51970;53.484;49.488;2022-07-23T10:10:03;27.65;45.83
65369;HTU21D;51970;53.484;49.488;2022-07-23T10:12:30;27.69;46.73
65369;HTU21D;51970;53.484;49.488;2022-07-23T10:15:15;27.64;44.73
65369;HTU21D;51970;53.484;49.488;2022-07-23T10:17:41;27.52;44.36
65369;HTU21D;51970;53.484;49.488;2022-07-23T10:20:07;27.31;45.04
65369;HTU21D;51970;53.484;49.488;2022-07-23T10:22:36;27.07;45.68
65369;HTU21D;51970;53.484;49.488;2022-07-23T10:25:21;26.90;46.54
65369;HTU21D;51970;53.484;49.488;2022-07-23T10:34:00;25.49;53.64
65369;HTU21D;51970;53.484;49.488;2022-07-23T10:39:07;25.31;53.43
65369;HTU21D;51970;53.484;49.488;2022-07-23T10:41:36;25.18;53.89
65369;HTU21D;51970;53.484;49.488;2022-07-23T10:44:18;24.79;54.21
65369;HTU21D;51970;53.484;49.488;2022-07-23T10:46:55;24.47;55.87
65369;HTU21D;51970;53.484;49.488;2022-07-23T10:49:29;24.36;56.13
65369;HTU21D;51970;53.484;49.488;2022-07-23T10:54:45;24.38;55.70
65369;HTU21D;51970;53.484;49.488;2022-07-23T10:57:12;24.42;55.93
65369;HTU21D;51970;53.484;49.488;2022-07-23T11:03:02;24.65;50.36
65369;HTU21D;51970;53.484;49.488;2022-07-23T11:05:45;24.85;48.57
65369;HTU21D;51970;53.484;49.488;2022-07-23T11:08:20;25.07;46.47
65369;HTU21D;51970;53.484;49.488;2022-07-23T11:10:50;25.24;45.04
65369;HTU21D;51970;53.484;49.488;2022-07-23T11:24:15;25.84;44.51
65369;HTU21D;51970;53.484;49.488;2022-07-23T11:26:45;25.93;46.41
65369;HTU21D;51970;53.484;49.488;2022-07-23T11:34:42;25.98;48.17
65369;HTU21D;51970;53.484;49.488;2022-07-23T11:37:13;25.88;48.95
65369;HTU21D;51970;53.484;49.488;2022-07-23T11:39:54;25.75;49.82
65369;HTU21D;51970;53.484;49.488;2022-07-23T11:42:21;25.83;49.40
65369;HTU21D;51970;53.484;49.488;2022-07-23T11:44:47;25.89;50.13
65369;HTU21D;51970;53.484;49.488;2022-07-23T11:47:14;25.89;50.53
65369;HTU21D;51970;53.484;49.488;2022-07-23T11:49:52;25.86;49.65
65369;HTU21D;51970;53.484;49.488;2022-07-23T11:52:18;25.83;49.72
65369;HTU21D;51970;53.484;49.488;2022-07-23T11:54:55;25.98;49.59
65369;HTU21D;51970;53.484;49.488;2022-07-23T11:57:27;26.31;47.96
65369;HTU21D;51970;53.484;49.488;2022-07-23T12:02:31;26.51;47.99
65369;HTU21D;51970;53.484;49.488;2022-07-23T12:04:57;26.36;47.84
65369;HTU21D;51970;53.484;49.488;2022-07-23T12:07:28;26.28;48.23
65369;HTU21D;51970;53.484;49.488;2022-07-23T12:09:56;26.30;48.48
65369;HTU21D;51970;53.484;49.488;2022-07-23T12:12:25;26.53;48.76
65369;HTU21D;51970;53.484;49.488;2022-07-23T12:14:54;26.52;48.68
65369;HTU21D;51970;53.484;49.488;2022-07-23T12:17:21;26.34;49.27
65369;HTU21D;51970;53.484;49.488;2022-07-23T12:19:47;26.42;48.38
65369;HTU21D;51970;53.484;49.488;2022-07-23T12:22:14;26.66;48.10
65369;HTU21D;51970;53.484;49.488;2022-07-23T12:25:00;26.80;46.88
65369;HTU21D;51970;53.484;49.488;2022-07-23T12:27:26;26.77;48.57
65369;HTU21D;51970;53.484;49.488;2022-07-23T12:29:53;26.78;48.47
65369;HTU21D;51970;53.484;49.488;2022-07-23T12:32:28;26.64;47.72
65369;HTU21D;51970;53.484;49.488;2022-07-23T12:35:08;26.49;48.73
65369;HTU21D;51970;53.484;49.488;2022-07-23T12:37:37;26.55;49.36
65369;HTU21D;51970;53.484;49.488;2022-07-23T12:40:25;26.56;48.69
65369;HTU21D;51970;53.484;49.488;2022-07-23T12:43:04;26.58;48.67
65369;HTU21D;51970;53.484;49.488;2022-07-23T12:48:36;26.99;50.11
65369;HTU21D;51970;53.484;49.488;2022-07-23T12:51:04;27.11;49.86
65369;HTU21D;51970;53.484;49.488;2022-07-23T12:53:36;27.29;50.67
65369;HTU21D;51970;53.484;49.488;2022-07-23T12:56:08;27.29;51.30
65369;HTU21D;51970;53.484;49.488;2022-07-23T13:04:08;27.81;50.35
65369;HTU21D;51970;53.484;49.488;2022-07-23T13:06:35;27.90;50.85
65369;HTU21D;51970;53.484;49.488;2022-07-23T13:09:03;27.85;48.82
65369;HTU21D;51970;53.484;49.488;2022-07-23T13:11:29;27.79;48.61
65369;HTU21D;51970;53.484;49.488;2022-07-23T13:13:55;27.60;49.65
65369;HTU21D;51970;53.484;49.488;2022-07-23T13:16:21;27.59;49.51
65369;HTU21D;51970;53.484;49.488;2022-07-23T13:18:48;27.56;48.99
65369;HTU21D;51970;53.484;49.488;2022-07-23T13:21:14;27.61;49.11
65369;HTU21D;51970;53.484;49.488;2022-07-23T13:23:40;27.70;48.93
65369;HTU21D;51970;53.484;49.488;2022-07-23T13:26:07;27.72;48.71
65369;HTU21D;51970;53.484;49.488;2022-07-23T13:28:33;27.66;48.95
65369;HTU21D;51970;53.484;49.488;2022-07-23T13:30:59;27.68;47.81
65369;HTU21D;51970;53.484;49.488;2022-07-23T13:33:25;27.65;47.05
65369;HTU21D;51970;53.484;49.488;2022-07-23T13:35:52;27.67;47.67
65369;HTU21D;51970;53.484;49.488;2022-07-23T13:38:19;27.75;47.10
65369;HTU21D;51970;53.484;49.488;2022-07-23T13:40:47;27.78;46.87
65369;HTU21D;51970;53.484;49.488;2022-07-23T13:43:17;27.87;46.43
65369;HTU21D;51970;53.484;49.488;2022-07-23T13:45:44;27.88;45.99
65369;HTU21D;51970;53.484;49.488;2022-07-23T13:48:12;27.81;46.14
65369;HTU21D;51970;53.484;49.488;2022-07-23T13:50:39;27.89;45.83
65369;HTU21D;51970;53.484;49.488;2022-07-23T13:53:08;27.90;46.60
65369;HTU21D;51970;53.484;49.488;2022-07-23T13:55:39;27.81;44.96
65369;HTU21D;51970;53.484;49.488;2022-07-23T13:58:06;27.76;44.83
65369;HTU21D;51970;53.484;49.488;2022-07-23T14:00:33;27.78;44.99
65369;HTU21D;51970;53.484;49.488;2022-07-23T14:03:00;27.82;44.83
65369;HTU21D;51970;53.484;49.488;2022-07-23T14:05:27;27.88;44.54
65369;HTU21D;51970;53.484;49.488;2022-07-23T14:07:53;27.98;44.70
65369;HTU21D;51970;53.484;49.488;2022-07-23T14:10:21;28.05;44.99
65369;HTU21D;51970;53.484;49.488;2022-07-23T14:12:48;28.49;42.77
65369;HTU21D;51970;53.484;49.488;2022-07-23T14:15:15;28.94;42.03
65369;HTU21D;51970;53.484;49.488;2022-07-23T14:17:43;28.75;41.51
65369;HTU21D;51970;53.484;49.488;2022-07-23T14:20:11;28.64;42.54
65369;HTU21D;51970;53.484;49.488;2022-07-23T14:22:38;28.72;42.08
65369;HTU21D;51970;53.484;49.488;2022-07-23T14:25:06;28.82;41.94
65369;HTU21D;51970;53.484;49.488;2022-07-23T14:27:32;28.74;42.34
65369;HTU21D;51970;53.484;49.488;2022-07-23T14:29:58;28.74;43.01
65369;HTU21D;51970;53.484;49.488;2022-07-23T14:32:25;28.90;42.56
65369;HTU21D;51970;53.484;49.488;2022-07-23T14:34:51;29.05;42.28
65369;HTU21D;51970;53.484;49.488;2022-07-23T14:37:17;29.07;42.15
65369;HTU21D;51970;53.484;49.488;2022-07-23T14:39:44;29.13;42.37
65369;HTU21D;51970;53.484;49.488;2022-07-23T14:42:10;29.09;42.14
65369;HTU21D;51970;53.484;49.488;2022-07-23T14:44:37;28.91;41.99
65369;HTU21D;51970;53.484;49.488;2022-07-23T14:47:04;28.92;42.28
65369;HTU21D;51970;53.484;49.488;2022-07-23T14:49:33;28.83;42.09
65369;HTU21D;51970;53.484;49.488;2022-07-23T14:52:01;28.86;42.38
65369;HTU21D;51970;53.484;49.488;2022-07-23T14:54:28;28.87;42.42
65369;HTU21D;51970;53.484;49.488;2022-07-23T14:56:54;29.11;41.67
65369;HTU21D;51970;53.484;49.488;2022-07-23T14:59:21;29.47;41.53
65369;HTU21D;51970;53.484;49.488;2022-07-23T15:01:47;29.83;40.97
65369;HTU21D;51970;53.484;49.488;2022-07-23T15:04:14;29.65;41.29
65369;HTU21D;51970;53.484;49.488;2022-07-23T15:06:40;29.02;42.97
65369;HTU21D;51970;53.484;49.488;2022-07-23T15:09:06;28.45;42.94
65369;HTU21D;51970;53.484;49.488;2022-07-23T15:11:32;28.01;45.95
65369;HTU21D;51970;53.484;49.488;2022-07-23T15:14:00;27.78;47.00
65369;HTU21D;51970;53.484;49.488;2022-07-23T15:16:27;27.66;47.24
65369;HTU21D;51970;53.484;49.488;2022-07-23T15:18:53;27.54;47.95
65369;HTU21D;51970;53.484;49.488;2022-07-23T15:21:20;27.50;47.06
65369;HTU21D;51970;53.484;49.488;2022-07-23T15:23:46;27.51;46.70
65369;HTU21D;51970;53.484;49.488;2022-07-23T15:26:12;27.50;46.76
65369;HTU21D;51970;53.484;49.488;2022-07-23T15:28:40;27.49;45.47
65369;HTU21D;51970;53.484;49.488;2022-07-23T15:31:06;27.50;45.41
65369;HTU21D;51970;53.484;49.488;2022-07-23T15:33:32;27.44;45.73
65369;HTU21D;51970;53.484;49.488;2022-07-23T15:35:59;27.51;48.24
65369;HTU21D;51970;53.484;49.488;2022-07-23T15:38:26;27.40;51.84
65369;HTU21D;51970;53.484;49.488;2022-07-23T15:40:56;27.30;52.86
65369;HTU21D;51970;53.484;49.488;2022-07-23T15:43:23;27.17;53.87
65369;HTU21D;51970;53.484;49.488;2022-07-23T15:45:50;27.02;54.58